Skip Navigation Links Skip Navigation Links

Current Weather

Sullivan County Intl, Monticello, N.Y.

For information only: do not use for flight planning or navigation.
Latest weather
Observation time Friday, August 14, 2020 11:56 AM EDT
Local time Friday, August 14, 2020 12:54 PM EDT
Flight conditions Visual Meteorological Conditions
Winds
Wind direction East (80°)
Wind speed 8 mph
Visibility 7 mi.
Sky condition
Ceiling unlimited
Sky clear
Temperature 77°F
Dewpoint 62°F
Altimeter 30.11 in.Hg
Derived measurements
Relative humidity 60%
Heat index 77°F
Density altitude 2608 ft.
Sea-level pressure 30.09 in.Hg
Remarks
Fully automated report.
Automated weather observing station with precipitation discriminator.
METAR KMSV 141556Z AUTO 08007KT 7SM CLR 25/17 A3011 RMK AO2 SLP188 T02500167

Settings

Location code

InnerDrive.Weather 4.0.6770.0 Release CLR 4.0.30319.42000
Copyright ©2018 Inner Drive Technology. All rights reserved. Portions Copyright ©1986-2018 David Braverman.

Find weather

Site navigation


Skip Navigation Links

Place info

Page info

PayPal - The safer, easier way to pay online!

Return home.

Copyright ©2020 Inner Drive Technology. Purveyors of fine, hand-crafted computer software. Page printed 2020-08-14T16:54:42 UTC.